Time;durP1;ratioP1;P1;durP2;ratioP2;P2;SDS_P1;SDS_P2;PMS_P1;PMS_P2;Temp;Humidity;BMP_temperature;BMP_pressure;BME280_temperature;BME280_humidity;BME280_pressure;Samples;Min_cycle;Max_cycle;Signal;HPM_P1;HPM_P2
2022/09/01 00:01:41;;;;;;;1.73;1.33;;;16.00;99.90;;;;;;5015731;28;20045;-52
2022/09/01 00:04:11;;;;;;;8.98;3.22;;;15.90;99.90;;;;;;5007120;28;20076;-52
2022/09/01 00:06:39;;;;;;;3.45;1.67;;;15.90;99.90;;;;;;5016694;28;20040;-56
2022/09/01 00:09:11;;;;;;;5.13;2.30;;;15.90;99.90;;;;;;5003344;28;20037;-55
2022/09/01 00:11:38;;;;;;;4.70;1.95;;;15.90;99.90;;;;;;5023078;28;20320;-54
2022/09/01 00:14:05;;;;;;;7.35;2.30;;;15.70;99.90;;;;;;5017595;28;20049;-53
2022/09/01 00:16:32;;;;;;;7.78;2.13;;;15.80;99.90;;;;;;5020791;28;20048;-51
2022/09/01 00:18:58;;;;;;;2.35;1.70;;;15.70;99.90;;;;;;5008651;28;20125;-55
2022/09/01 00:21:28;;;;;;;3.10;1.98;;;15.70;99.90;;;;;;5027806;28;20049;-57
2022/09/01 00:23:54;;;;;;;5.85;1.92;;;15.70;99.90;;;;;;5020050;28;20044;-57
2022/09/01 00:26:20;;;;;;;3.40;1.60;;;15.70;99.90;;;;;;5012424;28;20472;-58
2022/09/01 00:28:45;;;;;;;3.60;2.03;;;15.70;99.90;;;;;;5013390;28;20120;-53
2022/09/01 00:31:13;;;;;;;3.92;2.00;;;15.70;99.90;;;;;;5025956;28;20103;-55
2022/09/01 00:33:39;;;;;;;2.40;1.70;;;15.70;99.90;;;;;;4992113;28;20045;-53
2022/09/01 00:36:06;;;;;;;2.25;1.52;;;15.70;99.90;;;;;;5020955;28;20041;-52
2022/09/01 00:38:32;;;;;;;2.88;1.88;;;15.70;99.90;;;;;;5020028;28;20124;-55
2022/09/01 00:40:59;;;;;;;5.30;2.42;;;15.70;99.90;;;;;;5039420;28;20737;-54
2022/09/01 00:44:05;;;;;;;6.00;2.05;;;15.70;99.90;;;;;;5023394;28;20043;-57
2022/09/01 00:46:39;;;;;;;3.15;1.80;;;15.60;99.90;;;;;;4938991;28;20518;-55
2022/09/01 00:49:12;;;;;;;5.95;1.83;;;15.60;99.90;;;;;;4908831;28;20399;-53
2022/09/01 00:51:41;;;;;;;;;;;15.50;99.90;;;;;;4996344;28;20522;-52
2022/09/01 00:54:11;;;;;;;4.68;1.85;;;15.40;99.90;;;;;;5022068;28;19940;-53
2022/09/01 00:56:39;;;;;;;3.40;1.90;;;15.40;99.90;;;;;;5014026;28;20044;-52
2022/09/01 00:59:08;;;;;;;4.35;2.30;;;15.40;99.90;;;;;;5015676;28;20044;-53
2022/09/01 01:01:35;;;;;;;4.63;2.22;;;15.50;99.90;;;;;;4990172;28;20048;-54
2022/09/01 01:04:03;;;;;;;3.70;2.20;;;15.40;99.90;;;;;;4992182;28;20102;-53
2022/09/01 01:06:29;;;;;;;5.38;2.42;;;15.40;99.90;;;;;;4999616;28;20048;-54
2022/09/01 01:08:59;;;;;;;3.13;1.73;;;15.40;99.90;;;;;;5010583;28;20073;-52
2022/09/01 01:11:31;;;;;;;6.13;2.38;;;15.30;99.90;;;;;;5021157;28;20116;-53
2022/09/01 01:14:11;;;;;;;3.78;2.28;;;15.30;99.90;;;;;;5010353;28;20481;-53
2022/09/01 01:16:45;;;;;;;3.90;2.05;;;15.20;99.90;;;;;;5019607;28;20450;-53
2022/09/01 01:25:11;;;;;;;3.15;1.52;;;15.10;99.90;;;;;;5011312;28;20520;-52
2022/09/01 01:27:41;;;;;;;3.65;1.70;;;15.20;99.90;;;;;;5017543;28;20039;-50
2022/09/01 01:30:09;;;;;;;4.72;2.28;;;15.20;99.90;;;;;;5013574;28;20124;-51
2022/09/01 01:32:41;;;;;;;5.47;2.17;;;15.20;99.90;;;;;;5011653;28;20177;-54
2022/09/01 01:35:15;;;;;;;1.95;1.33;;;15.00;99.90;;;;;;5009571;28;20087;-51
2022/09/01 01:37:44;;;;;;;2.33;1.60;;;15.10;99.90;;;;;;5019598;28;20041;-55
2022/09/01 01:40:14;;;;;;;4.18;2.45;;;15.10;99.90;;;;;;5009743;28;20053;-54
2022/09/01 01:42:45;;;;;;;2.45;1.65;;;15.10;99.90;;;;;;5018404;28;20185;-52
2022/09/01 01:45:18;;;;;;;3.10;2.00;;;15.10;99.90;;;;;;5011637;28;20531;-53
2022/09/01 01:47:52;;;;;;;5.32;2.47;;;15.00;99.90;;;;;;5004235;28;20098;-57
2022/09/01 01:50:34;;;;;;;4.43;2.00;;;15.00;99.90;;;;;;4998998;28;20208;-53
2022/09/01 01:53:02;;;;;;;3.20;1.52;;;15.00;99.90;;;;;;5012719;28;20091;-55
2022/09/01 01:55:29;;;;;;;2.50;2.00;;;15.00;99.90;;;;;;5009917;28;20071;-53
2022/09/01 01:57:57;;;;;;;3.05;2.17;;;14.90;99.90;;;;;;5006320;28;20375;-53
2022/09/01 02:00:27;;;;;;;3.47;2.25;;;14.90;99.90;;;;;;5006426;28;20052;-53
2022/09/01 02:02:53;;;;;;;4.40;2.10;;;15.00;99.90;;;;;;5003404;28;20057;-54
2022/09/01 02:05:28;;;;;;;2.60;1.70;;;14.80;99.90;;;;;;5000928;28;20055;-54
2022/09/01 02:08:02;;;;;;;3.05;2.15;;;14.80;99.90;;;;;;5012419;28;20045;-54
2022/09/01 02:10:34;;;;;;;2.47;1.65;;;14.90;99.90;;;;;;5021444;28;20302;-58
2022/09/01 02:13:06;;;;;;;4.30;2.67;;;14.80;99.90;;;;;;5006790;28;20048;-51
2022/09/01 02:15:44;;;;;;;3.85;2.30;;;14.30;99.90;;;;;;5034974;28;20426;-55
2022/09/01 02:18:34;;;;;;;2.95;2.00;;;14.80;99.90;;;;;;5018453;28;20072;-51
2022/09/01 02:21:02;;;;;;;5.85;2.00;;;14.80;99.90;;;;;;5020446;28;20115;-52
2022/09/01 02:23:28;;;;;;;4.25;2.30;;;14.70;99.90;;;;;;5010272;28;20049;-51
2022/09/01 02:25:59;;;;;;;4.18;1.63;;;14.80;99.90;;;;;;5008493;28;22419;-53
2022/09/01 02:28:27;;;;;;;3.15;2.20;;;14.80;99.90;;;;;;5006571;28;20084;-52
2022/09/01 02:30:58;;;;;;;2.85;2.00;;;14.80;99.90;;;;;;5048293;23;20036;-53
2022/09/01 02:33:26;;;;;;;3.35;2.40;;;14.80;99.90;;;;;;5067904;28;20106;-55
2022/09/01 02:35:58;;;;;;;5.00;2.15;;;14.80;99.90;;;;;;5053512;28;20594;-53
2022/09/01 02:38:26;;;;;;;2.55;2.00;;;14.80;99.90;;;;;;5075186;28;20044;-52
2022/09/01 02:40:52;;;;;;;2.50;1.90;;;14.80;99.90;;;;;;5073139;28;20036;-51
2022/09/01 02:43:20;;;;;;;3.40;1.98;;;14.80;99.90;;;;;;5061419;28;20470;-49
2022/09/01 02:45:54;;;;;;;4.13;1.98;;;14.80;99.90;;;;;;5051379;28;20048;-47
2022/09/01 02:48:23;;;;;;;3.67;2.40;;;14.80;99.90;;;;;;5070542;28;20037;-48
2022/09/01 02:50:49;;;;;;;2.78;2.10;;;14.80;99.90;;;;;;5044079;28;20036;-50
2022/09/01 02:53:15;;;;;;;2.47;1.70;;;14.80;99.90;;;;;;5081686;28;20101;-52
2022/09/01 02:55:42;;;;;;;3.45;1.92;;;14.80;99.90;;;;;;5062441;28;20556;-53
2022/09/01 02:58:13;;;;;;;3.35;2.45;;;14.80;99.90;;;;;;5071367;28;20603;-50
2022/09/01 03:00:39;;;;;;;8.15;2.53;;;14.80;99.90;;;;;;5077548;28;20486;-51
2022/09/01 03:03:06;;;;;;;3.30;2.20;;;14.80;99.90;;;;;;5063575;28;20134;-52
2022/09/01 03:05:33;;;;;;;3.70;2.22;;;14.80;99.90;;;;;;5066035;28;21347;-54
2022/09/01 03:08:06;;;;;;;2.85;1.70;;;14.80;99.90;;;;;;5039720;28;20451;-51
2022/09/01 03:10:35;;;;;;;4.05;1.70;;;14.80;99.90;;;;;;5050500;28;20213;-49
2022/09/01 03:13:05;;;;;;;2.78;1.77;;;14.80;99.90;;;;;;5066879;28;20117;-52
2022/09/01 03:15:32;;;;;;;4.40;2.13;;;14.80;99.90;;;;;;5076394;28;20051;-51
2022/09/01 03:17:59;;;;;;;2.08;1.70;;;14.70;99.90;;;;;;5054351;28;20102;-48
2022/09/01 03:20:29;;;;;;;3.88;2.17;;;14.80;99.90;;;;;;5073241;28;20040;-52
2022/09/01 03:22:56;;;;;;;4.80;2.20;;;14.70;99.90;;;;;;5055526;28;20043;-50
2022/09/01 03:25:24;;;;;;;3.88;2.15;;;14.70;99.90;;;;;;5051138;28;20140;-49
2022/09/01 03:27:51;;;;;;;3.83;2.10;;;14.70;99.90;;;;;;5074132;28;20428;-49
2022/09/01 03:30:18;;;;;;;3.17;2.20;;;14.70;99.90;;;;;;5053224;28;20237;-52
2022/09/01 03:32:44;;;;;;;3.65;2.10;;;14.70;99.90;;;;;;5057206;28;20625;-51
2022/09/01 03:35:10;;;;;;;2.28;1.83;;;14.80;99.90;;;;;;5054544;28;20036;-55
2022/09/01 03:37:38;;;;;;;2.90;1.98;;;14.80;99.90;;;;;;5041674;28;20487;-50
2022/09/01 03:40:07;;;;;;;2.95;2.30;;;14.80;99.90;;;;;;5050805;28;20047;-54
2022/09/01 03:42:35;;;;;;;4.43;2.13;;;14.80;99.90;;;;;;5051485;28;20067;-49
2022/09/01 03:45:11;;;;;;;3.60;1.90;;;14.80;99.90;;;;;;5069614;28;20037;-48
2022/09/01 03:47:42;;;;;;;4.05;2.33;;;14.80;99.90;;;;;;5055006;28;20032;-53
2022/09/01 03:50:20;;;;;;;2.60;2.10;;;14.80;99.90;;;;;;5052904;28;20032;-49
2022/09/01 03:52:48;;;;;;;2.15;1.80;;;14.80;99.90;;;;;;5072093;28;20028;-54
2022/09/01 03:55:22;;;;;;;3.30;2.17;;;14.70;99.90;;;;;;5043787;28;20043;-48
2022/09/01 03:57:56;;;;;;;5.57;2.67;;;14.70;99.90;;;;;;5049532;28;20413;-55
2022/09/01 04:00:28;;;;;;;2.90;2.00;;;14.70;99.90;;;;;;5053219;28;20036;-50
2022/09/01 04:02:56;;;;;;;3.30;2.30;;;14.70;99.90;;;;;;5063609;28;20495;-53
2022/09/01 04:05:27;;;;;;;4.45;2.33;;;14.70;99.90;;;;;;5066366;28;20050;-51
2022/09/01 04:07:54;;;;;;;4.43;2.40;;;14.70;99.90;;;;;;5055113;28;20082;-49
2022/09/01 04:10:21;;;;;;;2.88;2.30;;;14.70;99.90;;;;;;5047905;28;21516;-56
2022/09/01 04:12:48;;;;;;;2.70;2.45;;;14.60;99.90;;;;;;5045715;28;20037;-48
2022/09/01 04:15:15;;;;;;;2.97;1.88;;;14.60;99.90;;;;;;5049284;28;20049;-48
2022/09/01 04:20:27;;;;;;;2.38;2.05;;;14.60;99.90;;;;;;5045228;28;20131;-53
2022/09/01 04:22:56;;;;;;;2.97;2.45;;;14.60;99.90;;;;;;5061974;28;20154;-48
2022/09/01 04:25:24;;;;;;;3.70;2.15;;;14.50;99.90;;;;;;5050963;28;20532;-52
2022/09/01 04:27:55;;;;;;;3.00;1.85;;;14.60;99.90;;;;;;5075332;28;20044;-53
2022/09/01 04:30:30;;;;;;;2.53;1.55;;;14.60;99.90;;;;;;5047709;28;20532;-52
2022/09/01 04:32:56;;;;;;;2.85;2.22;;;14.60;99.90;;;;;;5067673;28;20059;-49
2022/09/01 04:35:31;;;;;;;3.78;2.15;;;14.50;99.90;;;;;;5058137;28;20457;-51
2022/09/01 04:37:58;;;;;;;3.58;2.00;;;14.50;99.90;;;;;;5079905;28;20048;-54
2022/09/01 04:40:26;;;;;;;2.00;1.70;;;14.50;99.90;;;;;;5056568;28;20044;-53
2022/09/01 04:42:52;;;;;;;4.35;2.65;;;14.50;99.90;;;;;;5042145;28;20046;-53
2022/09/01 04:45:21;;;;;;;3.17;2.00;;;14.50;99.90;;;;;;5077540;28;20111;-50
2022/09/01 04:47:47;;;;;;;3.63;2.30;;;14.50;99.90;;;;;;5074682;28;20415;-50
2022/09/01 04:50:16;;;;;;;6.95;2.38;;;14.40;99.90;;;;;;5035107;28;20060;-50
2022/09/01 04:52:43;;;;;;;3.67;2.97;;;14.40;99.90;;;;;;5071896;28;24288;-56
2022/09/01 04:55:16;;;;;;;4.10;2.78;;;14.40;99.90;;;;;;5056419;28;20036;-49
2022/09/01 04:57:48;;;;;;;3.00;2.60;;;14.30;99.90;;;;;;5073168;28;20231;-49
2022/09/01 05:00:22;;;;;;;5.07;2.75;;;14.30;99.90;;;;;;5065620;28;20044;-49
2022/09/01 05:02:53;;;;;;;3.25;2.50;;;14.30;99.90;;;;;;5055883;28;20127;-56
2022/09/01 05:05:20;;;;;;;2.80;2.50;;;14.30;99.90;;;;;;5038865;28;21786;-51
2022/09/01 05:07:51;;;;;;;2.70;2.00;;;14.30;99.90;;;;;;5053863;28;20661;-52
2022/09/01 05:10:19;;;;;;;4.22;2.50;;;14.30;99.90;;;;;;5062781;28;20043;-55
2022/09/01 05:12:45;;;;;;;7.28;2.92;;;14.30;99.90;;;;;;5069991;28;20043;-50
2022/09/01 05:15:14;;;;;;;4.22;2.92;;;14.30;99.90;;;;;;5076130;28;20074;-54
2022/09/01 05:17:40;;;;;;;3.30;2.05;;;14.30;99.90;;;;;;5059004;28;20757;-49
2022/09/01 05:20:06;;;;;;;3.17;2.35;;;14.30;99.90;;;;;;5076472;28;20059;-50
2022/09/01 05:22:32;;;;;;;2.17;1.70;;;14.30;99.90;;;;;;5055730;28;20770;-53
2022/09/01 05:25:10;;;;;;;4.38;3.38;;;14.30;99.90;;;;;;5070717;28;20490;-52
2022/09/01 05:27:38;;;;;;;2.97;1.70;;;14.30;99.90;;;;;;5071774;28;20502;-51
2022/09/01 05:30:07;;;;;;;3.30;2.15;;;14.20;99.90;;;;;;5065179;28;20468;-53
2022/09/01 05:32:38;;;;;;;3.10;2.20;;;14.30;99.90;;;;;;5044464;28;20047;-56
2022/09/01 05:35:07;;;;;;;2.75;2.40;;;14.30;99.90;;;;;;5061923;28;20048;-55
2022/09/01 05:37:36;;;;;;;5.35;2.88;;;14.30;99.90;;;;;;5074236;28;20189;-52
2022/09/01 05:40:08;;;;;;;3.55;2.40;;;14.30;99.90;;;;;;5053670;28;20039;-51
2022/09/01 05:42:38;;;;;;;3.95;2.15;;;14.30;99.90;;;;;;5063000;28;20063;-55
2022/09/01 05:45:04;;;;;;;3.13;2.20;;;14.30;99.90;;;;;;5057052;28;20084;-51
2022/09/01 05:47:36;;;;;;;4.72;2.22;;;14.30;99.90;;;;;;5057801;28;20036;-56
2022/09/01 05:50:04;;;;;;;3.72;2.90;;;14.30;99.90;;;;;;5064603;28;20462;-54
2022/09/01 05:52:38;;;;;;;4.63;2.70;;;14.40;99.90;;;;;;5062531;28;20036;-52
2022/09/01 05:55:07;;;;;;;5.25;2.45;;;14.40;99.90;;;;;;5060151;28;20440;-51
2022/09/01 05:57:35;;;;;;;5.43;3.05;;;14.50;99.90;;;;;;5054564;28;20047;-56
2022/09/01 06:00:09;;;;;;;3.88;2.70;;;14.50;99.90;;;;;;5049422;28;20125;-51
2022/09/01 06:02:36;;;;;;;3.47;2.13;;;14.60;99.90;;;;;;5047510;28;20419;-55
2022/09/01 06:05:02;;;;;;;3.95;3.05;;;14.60;99.90;;;;;;5073655;28;20309;-53
2022/09/01 06:07:28;;;;;;;4.43;2.60;;;14.70;99.90;;;;;;5056082;28;20494;-49
2022/09/01 06:09:54;;;;;;;4.05;3.00;;;14.70;99.90;;;;;;5063858;28;20368;-52
2022/09/01 06:12:22;;;;;;;3.13;2.60;;;14.80;99.90;;;;;;5044918;28;20045;-53
2022/09/01 06:14:51;;;;;;;3.88;2.50;;;14.80;99.90;;;;;;5043586;28;20498;-52
2022/09/01 06:17:20;;;;;;;2.80;2.17;;;14.80;99.90;;;;;;5049242;28;20413;-54
2022/09/01 06:19:47;;;;;;;3.15;2.28;;;14.90;99.90;;;;;;5060152;28;20418;-54
2022/09/01 06:22:13;;;;;;;5.25;2.75;;;15.00;99.90;;;;;;5059565;28;20161;-50
2022/09/01 06:24:39;;;;;;;4.25;2.33;;;15.10;99.90;;;;;;5041245;28;20062;-55
2022/09/01 06:27:08;;;;;;;3.20;1.98;;;15.20;99.90;;;;;;5038809;28;20048;-51
2022/09/01 06:29:38;;;;;;;4.70;2.70;;;15.30;99.90;;;;;;5073512;28;20036;-52
2022/09/01 06:32:08;;;;;;;3.20;2.65;;;15.30;99.90;;;;;;5041165;28;20035;-57
2022/09/01 06:34:35;;;;;;;4.60;2.75;;;15.40;99.90;;;;;;5071195;28;20495;-56
2022/09/01 06:37:01;;;;;;;2.50;2.05;;;15.50;99.90;;;;;;5075986;28;20128;-51
2022/09/01 06:39:27;;;;;;;4.28;2.47;;;15.50;99.90;;;;;;5072492;28;20044;-54
2022/09/01 06:41:53;;;;;;;5.85;2.40;;;15.60;99.90;;;;;;5067608;28;20107;-57
2022/09/01 06:44:21;;;;;;;4.22;2.40;;;15.60;99.90;;;;;;5047181;28;20032;-55
2022/09/01 06:46:51;;;;;;;5.38;2.20;;;15.70;99.90;;;;;;5065916;28;20050;-54
2022/09/01 06:49:17;;;;;;;4.35;2.38;;;15.70;99.90;;;;;;5058618;28;20078;-53
2022/09/01 06:51:48;;;;;;;6.35;2.30;;;15.60;99.90;;;;;;5035064;28;20090;-58
2022/09/01 06:54:15;;;;;;;4.55;2.55;;;15.70;99.90;;;;;;5042280;28;20507;-56
2022/09/01 06:56:40;;;;;;;5.78;2.47;;;15.70;99.90;;;;;;5064907;28;20045;-51
2022/09/01 06:59:06;;;;;;;5.22;2.60;;;15.90;99.90;;;;;;5056618;28;20170;-52
2022/09/01 07:01:32;;;;;;;3.28;2.28;;;15.90;99.90;;;;;;5055680;28;20051;-54
2022/09/01 07:03:59;;;;;;;3.33;2.70;;;16.10;99.90;;;;;;5029649;28;20052;-56
2022/09/01 07:06:26;;;;;;;11.15;2.92;;;16.10;99.90;;;;;;5056813;28;20122;-52
2022/09/01 07:09:00;;;;;;;5.03;2.40;;;16.20;99.90;;;;;;5061329;28;20174;-52
2022/09/01 07:11:29;;;;;;;4.47;2.50;;;16.30;99.90;;;;;;5066015;28;20113;-51
2022/09/01 07:14:04;;;;;;;4.03;2.40;;;16.40;99.90;;;;;;5070099;28;20072;-56
2022/09/01 07:16:38;;;;;;;3.15;2.38;;;16.50;99.90;;;;;;5050291;28;20116;-51
2022/09/01 07:19:07;;;;;;;3.88;2.55;;;16.70;99.90;;;;;;5060925;28;20178;-52
2022/09/01 07:21:33;;;;;;;2.95;2.47;;;16.80;99.90;;;;;;5067172;28;20493;-55
2022/09/01 07:24:00;;;;;;;5.88;2.92;;;17.00;99.90;;;;;;5056994;28;20039;-58
2022/09/01 07:26:27;;;;;;;3.83;2.38;;;17.10;99.90;;;;;;5049089;28;20047;-53
2022/09/01 07:28:53;;;;;;;4.35;2.47;;;17.20;99.90;;;;;;5068257;28;20040;-56
2022/09/01 07:31:28;;;;;;;6.07;2.47;;;17.30;99.90;;;;;;5080042;28;20048;-53
2022/09/01 07:33:57;;;;;;;3.03;2.10;;;17.40;99.90;;;;;;5042219;28;20047;-55
2022/09/01 07:36:24;;;;;;;3.65;2.28;;;17.50;99.90;;;;;;5082196;28;20036;-51
2022/09/01 07:38:52;;;;;;;5.60;2.67;;;17.50;99.90;;;;;;5065284;28;20205;-54
2022/09/01 07:41:24;;;;;;;3.92;2.25;;;17.50;99.90;;;;;;5045643;28;20044;-52
2022/09/01 07:43:51;;;;;;;3.92;2.40;;;17.50;99.90;;;;;;5079670;28;20044;-52
2022/09/01 07:46:18;;;;;;;4.88;2.60;;;17.60;99.90;;;;;;5075488;28;20044;-50
2022/09/01 07:48:44;;;;;;;2.88;2.47;;;17.80;99.90;;;;;;5066546;28;20032;-53
2022/09/01 07:51:12;;;;;;;3.97;2.40;;;17.90;99.90;;;;;;5045852;28;20078;-51
2022/09/01 07:53:38;;;;;;;3.13;2.38;;;18.00;99.90;;;;;;5047495;28;20663;-49
2022/09/01 07:56:09;;;;;;;4.90;2.40;;;17.90;99.90;;;;;;5020303;28;20044;-50
2022/09/01 07:58:37;;;;;;;3.88;2.10;;;18.00;99.90;;;;;;5062388;28;20114;-53
2022/09/01 08:01:08;;;;;;;3.72;2.28;;;18.10;99.90;;;;;;5043709;28;20275;-49
2022/09/01 08:03:34;;;;;;;4.13;2.47;;;18.30;99.90;;;;;;5073476;28;20078;-54
2022/09/01 08:06:06;;;;;;;3.55;2.30;;;18.40;99.90;;;;;;5064185;28;20036;-52
2022/09/01 08:08:34;;;;;;;2.92;2.25;;;18.50;99.90;;;;;;5081775;28;20056;-53
2022/09/01 08:10:59;;;;;;;4.30;2.63;;;18.60;99.90;;;;;;5057760;28;20070;-49
2022/09/01 08:13:25;;;;;;;4.15;2.30;;;18.70;99.90;;;;;;5055626;28;20036;-51
2022/09/01 08:15:51;;;;;;;2.40;2.05;;;18.70;99.90;;;;;;5062319;28;20106;-49
2022/09/01 08:18:17;;;;;;;5.45;2.38;;;18.80;99.90;;;;;;5075591;28;20455;-50
2022/09/01 08:20:47;;;;;;;5.03;2.70;;;18.80;99.90;;;;;;5080950;28;20636;-51
2022/09/01 08:23:17;;;;;;;5.85;2.90;;;18.90;99.90;;;;;;5054814;28;20418;-56
2022/09/01 08:25:43;;;;;;;2.75;1.90;;;19.00;99.90;;;;;;5061847;28;20036;-50
2022/09/01 08:28:10;;;;;;;5.07;2.10;;;19.20;99.90;;;;;;5076708;28;20396;-52
2022/09/01 08:30:39;;;;;;;2.60;1.92;;;19.40;99.90;;;;;;5063370;22;20040;-56
2022/09/01 08:33:05;;;;;;;3.08;1.73;;;19.60;99.90;;;;;;4999643;28;20037;-56
2022/09/01 08:35:31;;;;;;;3.50;2.38;;;19.70;99.90;;;;;;4988919;28;20085;-55
2022/09/01 08:37:59;;;;;;;2.53;2.10;;;19.70;99.50;;;;;;4976953;28;20158;-55
2022/09/01 08:40:25;;;;;;;2.38;1.98;;;19.80;99.70;;;;;;4974346;28;20125;-55
2022/09/01 08:43:12;;;;;;;3.65;1.90;;;20.00;99.30;;;;;;5009262;28;20041;-56
2022/09/01 08:45:44;;;;;;;5.68;1.92;;;20.10;99.60;;;;;;5017299;28;20493;-56
2022/09/01 08:48:41;;;;;;;4.38;2.15;;;20.30;99.40;;;;;;4999195;28;20045;-56
2022/09/01 08:51:18;;;;;;;3.78;1.83;;;20.40;98.60;;;;;;4979743;28;20054;-56
2022/09/01 08:54:15;;;;;;;5.68;2.50;;;20.40;98.90;;;;;;4996496;28;20041;-56
2022/09/01 08:56:42;;;;;;;2.28;1.85;;;20.50;98.90;;;;;;5010801;28;20045;-56
2022/09/01 08:59:09;;;;;;;2.80;2.03;;;20.50;98.80;;;;;;4999717;28;20169;-56
2022/09/01 09:02:01;;;;;;;6.22;2.20;;;20.70;98.70;;;;;;5002464;28;20167;-56
2022/09/01 09:04:46;;;;;;;3.10;1.80;;;20.60;98.30;;;;;;4991010;28;20473;-56
2022/09/01 09:07:20;;;;;;;2.17;1.70;;;20.60;98.00;;;;;;4991062;28;20041;-59
2022/09/01 09:09:54;;;;;;;3.17;1.77;;;20.70;98.00;;;;;;5008437;28;20053;-56
2022/09/01 09:12:55;;;;;;;3.63;1.65;;;20.80;98.00;;;;;;5007912;28;20547;-56
2022/09/01 09:15:30;;;;;;;4.20;1.85;;;20.90;97.20;;;;;;4986147;28;20049;-56
2022/09/01 09:18:04;;;;;;;4.90;1.75;;;20.90;97.40;;;;;;5003808;28;20112;-56
2022/09/01 09:20:30;;;;;;;4.47;2.00;;;21.00;97.00;;;;;;4992268;28;20045;-56
2022/09/01 09:22:56;;;;;;;3.58;2.13;;;21.10;96.70;;;;;;5008466;28;20037;-57
2022/09/01 09:25:23;;;;;;;2.40;1.80;;;21.10;96.70;;;;;;4985374;28;20041;-57
2022/09/01 09:27:50;;;;;;;5.50;1.80;;;21.20;97.20;;;;;;4995046;28;20061;-57
2022/09/01 09:30:22;;;;;;;2.42;1.83;;;21.50;97.30;;;;;;4977187;28;20042;-57
2022/09/01 09:33:09;;;;;;;3.60;1.80;;;21.60;96.30;;;;;;5010111;28;20360;-56
2022/09/01 09:35:43;;;;;;;2.03;1.60;;;21.60;95.50;;;;;;4995340;28;20040;-57
2022/09/01 09:38:17;;;;;;;4.78;1.70;;;21.70;96.10;;;;;;4994705;28;20055;-57
2022/09/01 09:41:01;;;;;;;2.42;1.48;;;21.80;95.60;;;;;;5007054;28;20063;-57
2022/09/01 09:43:28;;;;;;;;;;;21.80;94.90;;;;;;5000161;28;20100;-57
2022/09/01 09:46:22;;;;;;;1.83;1.30;;;21.60;93.70;;;;;;5012251;28;19917;-57
2022/09/01 09:49:04;;;;;;;2.58;1.42;;;21.70;94.50;;;;;;4988032;28;20172;-57
2022/09/01 09:51:30;;;;;;;4.78;1.70;;;21.80;95.10;;;;;;4990703;28;20349;-57
2022/09/01 09:54:29;;;;;;;1.40;1.25;;;22.00;95.00;;;;;;4999081;28;20041;-58
2022/09/01 09:57:12;;;;;;;6.22;1.67;;;22.20;94.30;;;;;;4991470;28;20495;-58
2022/09/01 09:59:52;;;;;;;3.80;1.60;;;22.20;93.10;;;;;;5010824;28;20531;-58
2022/09/01 10:02:29;;;;;;;2.58;1.40;;;22.30;93.10;;;;;;5014014;28;20069;-57
2022/09/01 10:04:56;;;;;;;1.98;1.10;;;22.30;93.20;;;;;;4987192;28;20045;-57
2022/09/01 10:07:34;;;;;;;2.92;1.40;;;22.40;93.30;;;;;;5009132;28;20033;-57
2022/09/01 10:10:06;;;;;;;3.42;1.60;;;22.50;92.80;;;;;;5020493;28;20281;-56
2022/09/01 10:12:32;;;;;;;2.33;1.33;;;22.50;91.90;;;;;;4986185;28;20080;-55
2022/09/01 10:14:58;;;;;;;2.00;1.10;;;22.50;91.90;;;;;;5019272;28;20040;-56
2022/09/01 10:17:45;;;;;;;2.15;1.30;;;22.60;91.00;;;;;;5025911;28;20037;-57
2022/09/01 10:20:17;;;;;;;5.85;1.40;;;22.60;91.50;;;;;;5007007;28;20406;-56
2022/09/01 10:22:43;;;;;;;2.83;1.40;;;22.70;91.60;;;;;;5028273;28;20041;-55
2022/09/01 10:25:16;;;;;;;3.88;1.40;;;22.80;91.40;;;;;;5011510;28;20048;-58
2022/09/01 10:27:46;;;;;;;4.00;1.20;;;23.00;91.90;;;;;;4994735;28;20045;-57
2022/09/01 10:30:20;;;;;;;2.78;1.30;;;23.20;91.90;;;;;;4996843;28;20407;-56
2022/09/01 10:32:48;;;;;;;3.00;1.17;;;23.20;91.00;;;;;;5026415;28;20507;-57
2022/09/01 10:35:22;;;;;;;2.97;1.35;;;23.30;90.50;;;;;;5013190;28;20104;-57
2022/09/01 10:37:49;;;;;;;2.35;1.20;;;23.40;91.00;;;;;;5018781;28;20113;-57
2022/09/01 10:40:27;;;;;;;1.45;1.20;;;23.50;90.90;;;;;;5007897;28;20053;-58
2022/09/01 10:43:16;;;;;;;2.83;1.15;;;23.30;90.30;;;;;;5006701;28;20053;-57
2022/09/01 10:45:43;;;;;;;4.43;1.10;;;23.30;88.80;;;;;;5004431;28;20440;-57
2022/09/01 10:48:32;;;;;;;2.60;1.13;;;23.20;89.10;;;;;;4989622;28;20105;-57
2022/09/01 10:51:13;;;;;;;1.83;1.30;;;23.30;88.00;;;;;;4983611;28;20283;-57
2022/09/01 10:53:43;;;;;;;1.65;0.95;;;23.00;84.50;;;;;;5013694;28;20085;-57
2022/09/01 10:56:38;;;;;;;1.85;0.90;;;22.60;84.90;;;;;;5027826;28;20123;-57
2022/09/01 10:59:08;;;;;;;1.65;0.80;;;22.40;82.80;;;;;;5027826;28;20049;-57
2022/09/01 11:01:40;;;;;;;2.47;0.90;;;22.40;85.10;;;;;;5004568;28;20499;-56
2022/09/01 11:04:15;;;;;;;1.92;0.90;;;22.30;84.70;;;;;;5020092;28;20401;-57
2022/09/01 11:06:40;;;;;;;2.53;0.90;;;22.20;86.40;;;;;;5006421;28;20061;-57
2022/09/01 11:09:18;;;;;;;1.13;0.80;;;22.50;86.10;;;;;;4999036;28;20076;-58
2022/09/01 11:12:12;;;;;;;2.15;0.90;;;22.80;85.30;;;;;;5005808;28;20053;-57
2022/09/01 11:14:52;;;;;;;4.10;0.98;;;23.20;83.90;;;;;;5019832;28;20045;-57
2022/09/01 11:17:30;;;;;;;2.63;0.73;;;23.40;82.70;;;;;;5019341;28;20590;-57
2022/09/01 11:20:07;;;;;;;2.85;1.10;;;23.50;81.90;;;;;;4993872;28;20106;-57
2022/09/01 11:22:43;;;;;;;2.00;1.00;;;23.70;83.10;;;;;;4994829;28;20057;-57
2022/09/01 11:25:12;;;;;;;1.00;0.80;;;23.80;80.70;;;;;;5023336;28;20087;-56
2022/09/01 11:27:47;;;;;;;3.20;0.93;;;23.80;81.30;;;;;;5006319;28;20044;-57
2022/09/01 11:30:35;;;;;;;2.97;0.95;;;23.90;80.30;;;;;;5003645;28;20065;-56
2022/09/01 11:33:31;;;;;;;2.67;1.08;;;23.90;80.00;;;;;;4987790;28;20045;-57
2022/09/01 11:36:19;;;;;;;1.10;0.80;;;24.20;81.50;;;;;;4971704;28;20065;-59
2022/09/01 11:39:01;;;;;;;1.35;0.80;;;24.30;79.70;;;;;;4992430;28;20639;-54
2022/09/01 11:41:32;;;;;;;3.13;0.75;;;24.40;78.70;;;;;;4991711;28;20038;-55
2022/09/01 11:44:01;;;;;;;2.85;0.90;;;24.40;79.80;;;;;;4993855;28;20325;-55
2022/09/01 11:46:34;;;;;;;8.82;1.17;;;24.40;78.40;;;;;;4995256;28;20507;-54
2022/09/01 11:49:17;;;;;;;0.68;0.57;;;24.10;76.80;;;;;;4989158;28;20045;-54
2022/09/01 11:51:47;;;;;;;1.05;0.70;;;23.90;76.50;;;;;;5009059;28;20214;-53
2022/09/01 11:54:14;;;;;;;1.10;0.98;;;23.60;77.30;;;;;;5019631;28;20037;-57
2022/09/01 11:56:39;;;;;;;1.70;0.88;;;23.60;79.40;;;;;;4999781;28;20045;-56
2022/09/01 11:59:05;;;;;;;2.42;0.90;;;23.60;78.50;;;;;;5013846;28;20059;-57
2022/09/01 12:01:32;;;;;;;2.35;0.80;;;23.60;76.00;;;;;;4992647;28;20091;-53
2022/09/01 12:04:30;;;;;;;2.00;0.80;;;23.40;76.90;;;;;;5014553;28;20033;-56
2022/09/01 12:07:28;;;;;;;3.45;0.90;;;23.80;77.90;;;;;;4994176;28;20034;-54
2022/09/01 12:09:54;;;;;;;1.58;0.93;;;24.30;76.50;;;;;;4994378;28;20033;-54
2022/09/01 12:12:31;;;;;;;3.35;1.10;;;24.70;75.70;;;;;;4999653;28;20044;-57
2022/09/01 12:15:03;;;;;;;2.70;1.02;;;24.80;73.60;;;;;;5000822;28;22360;-58
2022/09/01 12:17:28;;;;;;;2.75;0.98;;;24.70;73.90;;;;;;4990172;28;20165;-59
2022/09/01 12:19:54;;;;;;;1.40;0.77;;;24.80;73.20;;;;;;4995312;28;20465;-54
2022/09/01 12:22:22;;;;;;;1.13;0.90;;;24.90;73.40;;;;;;5000676;28;20064;-55
2022/09/01 12:24:53;;;;;;;2.67;0.75;;;24.90;74.30;;;;;;4990371;28;20048;-56
2022/09/01 12:27:21;;;;;;;2.97;0.90;;;25.00;73.10;;;;;;4992525;28;20087;-60
2022/09/01 12:29:48;;;;;;;2.35;0.77;;;24.70;72.90;;;;;;5009589;28;20058;-57
2022/09/01 12:32:15;;;;;;;2.65;1.00;;;24.60;73.70;;;;;;4981974;28;20037;-57
2022/09/01 12:35:02;;;;;;;1.52;0.70;;;24.70;73.80;;;;;;4999330;28;20284;-54
2022/09/01 12:37:28;;;;;;;3.25;1.00;;;24.70;72.90;;;;;;5040743;28;20050;-57
2022/09/01 12:39:56;;;;;;;1.35;0.88;;;24.30;72.90;;;;;;4999892;28;20369;-58
2022/09/01 12:42:29;;;;;;;2.97;0.90;;;23.90;74.60;;;;;;5014576;28;20089;-57
2022/09/01 12:45:09;;;;;;;2.08;0.80;;;23.60;74.10;;;;;;5001747;28;20076;-55
2022/09/01 12:47:35;;;;;;;4.05;0.85;;;23.40;74.50;;;;;;5021353;28;20136;-56
2022/09/01 12:50:06;;;;;;;2.10;0.90;;;23.40;75.90;;;;;;5023449;28;20124;-58
2022/09/01 12:52:34;;;;;;;1.85;0.90;;;23.70;76.10;;;;;;4983148;28;20056;-59
2022/09/01 12:55:05;;;;;;;1.17;0.70;;;24.10;74.90;;;;;;4993703;28;20411;-54
2022/09/01 12:57:32;;;;;;;1.92;1.00;;;24.40;75.30;;;;;;5026507;28;20049;-54
2022/09/01 13:00:11;;;;;;;2.38;1.10;;;24.70;74.80;;;;;;5014264;28;20053;-54
2022/09/01 13:02:41;;;;;;;1.23;0.90;;;24.60;74.00;;;;;;5008203;28;20048;-56
2022/09/01 13:05:27;;;;;;;3.60;1.08;;;24.50;73.60;;;;;;5008872;28;20469;-59
2022/09/01 13:08:10;;;;;;;0.90;0.70;;;24.30;71.90;;;;;;5023165;28;20046;-55
2022/09/01 13:10:45;;;;;;;1.80;1.00;;;24.40;74.20;;;;;;5001550;28;20045;-55
2022/09/01 13:13:14;;;;;;;1.88;0.82;;;24.30;72.10;;;;;;5018602;28;20110;-54
2022/09/01 13:15:49;;;;;;;1.30;0.80;;;24.10;71.80;;;;;;5008030;28;20197;-57
2022/09/01 13:18:23;;;;;;;4.13;1.08;;;24.00;71.00;;;;;;5037321;28;20110;-54